sensor_id;sensor_type;location;lat;lon;timestamp;temperature;humidity
3069;DHT22;1545;51.728;8.796;2023-05-07T00:01:32;13.80;96.60
3069;DHT22;1545;51.728;8.796;2023-05-07T00:03:57;13.80;96.70
3069;DHT22;1545;51.728;8.796;2023-05-07T00:06:23;13.80;96.80
3069;DHT22;1545;51.728;8.796;2023-05-07T00:08:49;13.70;97.00
3069;DHT22;1545;51.728;8.796;2023-05-07T00:11:14;13.70;97.00
3069;DHT22;1545;51.728;8.796;2023-05-07T00:13:40;13.70;97.10
3069;DHT22;1545;51.728;8.796;2023-05-07T00:16:05;13.70;96.90
3069;DHT22;1545;51.728;8.796;2023-05-07T00:18:31;13.70;97.00
3069;DHT22;1545;51.728;8.796;2023-05-07T00:20:56;13.70;97.00
3069;DHT22;1545;51.728;8.796;2023-05-07T00:23:22;13.70;96.90
3069;DHT22;1545;51.728;8.796;2023-05-07T00:25:48;13.60;97.00
3069;DHT22;1545;51.728;8.796;2023-05-07T00:28:14;13.60;97.20
3069;DHT22;1545;51.728;8.796;2023-05-07T00:30:39;13.60;97.20
3069;DHT22;1545;51.728;8.796;2023-05-07T00:33:05;13.60;97.20
3069;DHT22;1545;51.728;8.796;2023-05-07T00:35:30;13.60;97.40
3069;DHT22;1545;51.728;8.796;2023-05-07T00:37:56;13.50;97.80
3069;DHT22;1545;51.728;8.796;2023-05-07T00:40:21;13.50;97.50
3069;DHT22;1545;51.728;8.796;2023-05-07T00:42:47;13.50;97.70
3069;DHT22;1545;51.728;8.796;2023-05-07T00:45:14;13.50;97.80
3069;DHT22;1545;51.728;8.796;2023-05-07T00:47:40;13.50;97.50
3069;DHT22;1545;51.728;8.796;2023-05-07T00:50:07;13.50;97.50
3069;DHT22;1545;51.728;8.796;2023-05-07T00:52:33;13.50;97.50
3069;DHT22;1545;51.728;8.796;2023-05-07T00:55:04;13.40;97.50
3069;DHT22;1545;51.728;8.796;2023-05-07T00:57:41;13.40;97.70
3069;DHT22;1545;51.728;8.796;2023-05-07T01:00:08;13.40;97.50
3069;DHT22;1545;51.728;8.796;2023-05-07T01:02:35;13.40;97.30
3069;DHT22;1545;51.728;8.796;2023-05-07T01:05:02;13.40;97.50
3069;DHT22;1545;51.728;8.796;2023-05-07T01:07:29;13.40;97.50
3069;DHT22;1545;51.728;8.796;2023-05-07T01:09:55;13.30;97.40
3069;DHT22;1545;51.728;8.796;2023-05-07T01:12:20;13.40;97.30
3069;DHT22;1545;51.728;8.796;2023-05-07T01:14:46;13.40;97.30
3069;DHT22;1545;51.728;8.796;2023-05-07T01:17:14;13.30;97.40
3069;DHT22;1545;51.728;8.796;2023-05-07T01:19:40;13.30;97.20
3069;DHT22;1545;51.728;8.796;2023-05-07T01:22:10;13.30;97.10
3069;DHT22;1545;51.728;8.796;2023-05-07T01:24:37;13.30;97.30
3069;DHT22;1545;51.728;8.796;2023-05-07T01:27:03;13.20;97.30
3069;DHT22;1545;51.728;8.796;2023-05-07T01:29:29;13.20;97.30
3069;DHT22;1545;51.728;8.796;2023-05-07T01:31:59;13.20;97.30
3069;DHT22;1545;51.728;8.796;2023-05-07T01:34:26;13.20;97.30
3069;DHT22;1545;51.728;8.796;2023-05-07T01:36:54;13.10;97.30
3069;DHT22;1545;51.728;8.796;2023-05-07T01:39:22;13.10;97.40
3069;DHT22;1545;51.728;8.796;2023-05-07T01:41:48;13.10;97.40
3069;DHT22;1545;51.728;8.796;2023-05-07T01:44:15;13.10;97.20
3069;DHT22;1545;51.728;8.796;2023-05-07T01:46:41;13.10;97.00
3069;DHT22;1545;51.728;8.796;2023-05-07T01:49:07;13.10;96.80
3069;DHT22;1545;51.728;8.796;2023-05-07T01:51:33;13.10;96.90
3069;DHT22;1545;51.728;8.796;2023-05-07T01:53:59;13.10;96.70
3069;DHT22;1545;51.728;8.796;2023-05-07T01:56:25;13.10;96.80
3069;DHT22;1545;51.728;8.796;2023-05-07T01:58:51;13.00;96.80
3069;DHT22;1545;51.728;8.796;2023-05-07T02:01:17;13.00;96.90
3069;DHT22;1545;51.728;8.796;2023-05-07T02:03:43;13.00;96.60
3069;DHT22;1545;51.728;8.796;2023-05-07T02:06:08;13.00;96.60
3069;DHT22;1545;51.728;8.796;2023-05-07T02:08:34;13.00;96.70
3069;DHT22;1545;51.728;8.796;2023-05-07T02:11:00;13.00;96.50
3069;DHT22;1545;51.728;8.796;2023-05-07T02:13:29;13.00;96.20
3069;DHT22;1545;51.728;8.796;2023-05-07T02:15:54;12.90;96.30
3069;DHT22;1545;51.728;8.796;2023-05-07T02:18:20;12.90;96.60
3069;DHT22;1545;51.728;8.796;2023-05-07T02:20:45;12.90;96.50
3069;DHT22;1545;51.728;8.796;2023-05-07T02:23:11;12.90;96.40
3069;DHT22;1545;51.728;8.796;2023-05-07T02:25:36;12.90;96.50
3069;DHT22;1545;51.728;8.796;2023-05-07T02:28:02;12.80;96.60
3069;DHT22;1545;51.728;8.796;2023-05-07T02:30:28;12.80;96.70
3069;DHT22;1545;51.728;8.796;2023-05-07T02:32:53;12.70;96.70
3069;DHT22;1545;51.728;8.796;2023-05-07T02:35:19;12.70;96.80
3069;DHT22;1545;51.728;8.796;2023-05-07T02:37:44;12.60;97.20
3069;DHT22;1545;51.728;8.796;2023-05-07T02:40:10;12.60;97.30
3069;DHT22;1545;51.728;8.796;2023-05-07T02:42:36;12.60;97.60
3069;DHT22;1545;51.728;8.796;2023-05-07T02:45:01;12.50;97.70
3069;DHT22;1545;51.728;8.796;2023-05-07T02:47:27;12.50;97.70
3069;DHT22;1545;51.728;8.796;2023-05-07T02:49:54;12.50;97.80
3069;DHT22;1545;51.728;8.796;2023-05-07T02:52:20;12.50;97.90
3069;DHT22;1545;51.728;8.796;2023-05-07T02:54:46;12.40;98.00
3069;DHT22;1545;51.728;8.796;2023-05-07T02:57:11;12.40;97.70
3069;DHT22;1545;51.728;8.796;2023-05-07T02:59:37;12.40;97.80
3069;DHT22;1545;51.728;8.796;2023-05-07T03:02:02;12.40;97.90
3069;DHT22;1545;51.728;8.796;2023-05-07T03:04:28;12.40;97.90
3069;DHT22;1545;51.728;8.796;2023-05-07T03:06:53;12.40;97.70
3069;DHT22;1545;51.728;8.796;2023-05-07T03:09:19;12.40;97.60
3069;DHT22;1545;51.728;8.796;2023-05-07T03:11:44;12.40;97.50
3069;DHT22;1545;51.728;8.796;2023-05-07T03:14:10;12.40;97.70
3069;DHT22;1545;51.728;8.796;2023-05-07T03:16:35;12.40;98.00
3069;DHT22;1545;51.728;8.796;2023-05-07T03:19:01;12.40;98.00
3069;DHT22;1545;51.728;8.796;2023-05-07T03:21:26;12.30;98.00
3069;DHT22;1545;51.728;8.796;2023-05-07T03:23:52;12.30;98.20
3069;DHT22;1545;51.728;8.796;2023-05-07T03:26:18;12.30;98.40
3069;DHT22;1545;51.728;8.796;2023-05-07T03:28:43;12.20;98.30
3069;DHT22;1545;51.728;8.796;2023-05-07T03:31:09;12.20;98.10
3069;DHT22;1545;51.728;8.796;2023-05-07T03:33:35;12.20;98.30
3069;DHT22;1545;51.728;8.796;2023-05-07T03:36:01;12.10;98.30
3069;DHT22;1545;51.728;8.796;2023-05-07T03:38:26;12.10;98.40
3069;DHT22;1545;51.728;8.796;2023-05-07T03:40:52;12.10;98.50
3069;DHT22;1545;51.728;8.796;2023-05-07T03:43:17;12.10;98.80
3069;DHT22;1545;51.728;8.796;2023-05-07T03:45:43;12.00;98.80
3069;DHT22;1545;51.728;8.796;2023-05-07T03:48:08;12.00;98.80
3069;DHT22;1545;51.728;8.796;2023-05-07T03:50:34;12.00;98.80
3069;DHT22;1545;51.728;8.796;2023-05-07T03:52:59;12.00;98.80
3069;DHT22;1545;51.728;8.796;2023-05-07T03:55:25;12.00;98.80
3069;DHT22;1545;51.728;8.796;2023-05-07T03:57:50;12.10;98.80
3069;DHT22;1545;51.728;8.796;2023-05-07T04:00:16;12.00;98.70
3069;DHT22;1545;51.728;8.796;2023-05-07T04:02:42;12.00;98.80
3069;DHT22;1545;51.728;8.796;2023-05-07T04:05:07;12.00;98.80
3069;DHT22;1545;51.728;8.796;2023-05-07T04:07:33;12.00;98.70
3069;DHT22;1545;51.728;8.796;2023-05-07T04:09:58;12.10;98.60
3069;DHT22;1545;51.728;8.796;2023-05-07T04:12:24;12.00;98.60
3069;DHT22;1545;51.728;8.796;2023-05-07T04:14:49;12.10;98.70
3069;DHT22;1545;51.728;8.796;2023-05-07T04:17:15;12.10;98.50
3069;DHT22;1545;51.728;8.796;2023-05-07T04:19:40;12.10;98.40
3069;DHT22;1545;51.728;8.796;2023-05-07T04:22:10;12.10;98.30
3069;DHT22;1545;51.728;8.796;2023-05-07T04:24:36;12.10;98.20
3069;DHT22;1545;51.728;8.796;2023-05-07T04:27:02;12.10;98.20
3069;DHT22;1545;51.728;8.796;2023-05-07T04:29:27;12.10;98.10
3069;DHT22;1545;51.728;8.796;2023-05-07T04:31:53;12.10;97.90
3069;DHT22;1545;51.728;8.796;2023-05-07T04:34:21;12.10;97.80
3069;DHT22;1545;51.728;8.796;2023-05-07T04:36:46;12.10;98.00
3069;DHT22;1545;51.728;8.796;2023-05-07T04:39:13;12.20;97.90
3069;DHT22;1545;51.728;8.796;2023-05-07T04:41:38;12.10;97.80
3069;DHT22;1545;51.728;8.796;2023-05-07T04:44:04;12.10;97.80
3069;DHT22;1545;51.728;8.796;2023-05-07T04:46:30;12.20;97.50
3069;DHT22;1545;51.728;8.796;2023-05-07T04:48:55;12.20;97.50
3069;DHT22;1545;51.728;8.796;2023-05-07T04:51:21;12.20;97.40
3069;DHT22;1545;51.728;8.796;2023-05-07T04:53:47;12.20;97.40
3069;DHT22;1545;51.728;8.796;2023-05-07T04:56:13;12.30;97.20
3069;DHT22;1545;51.728;8.796;2023-05-07T04:58:38;12.30;96.70
3069;DHT22;1545;51.728;8.796;2023-05-07T05:01:04;12.30;97.00
3069;DHT22;1545;51.728;8.796;2023-05-07T05:03:30;12.30;97.30
3069;DHT22;1545;51.728;8.796;2023-05-07T05:05:55;12.30;97.00
3069;DHT22;1545;51.728;8.796;2023-05-07T05:08:22;12.30;97.00
3069;DHT22;1545;51.728;8.796;2023-05-07T05:10:47;12.30;97.30
3069;DHT22;1545;51.728;8.796;2023-05-07T05:13:15;12.40;96.90
3069;DHT22;1545;51.728;8.796;2023-05-07T05:15:40;12.30;97.00
3069;DHT22;1545;51.728;8.796;2023-05-07T05:18:06;12.40;96.90
3069;DHT22;1545;51.728;8.796;2023-05-07T05:20:31;12.40;96.40
3069;DHT22;1545;51.728;8.796;2023-05-07T05:22:57;12.50;96.50
3069;DHT22;1545;51.728;8.796;2023-05-07T05:25:22;12.50;96.00
3069;DHT22;1545;51.728;8.796;2023-05-07T05:27:48;12.60;94.90
3069;DHT22;1545;51.728;8.796;2023-05-07T05:30:13;12.60;95.00
3069;DHT22;1545;51.728;8.796;2023-05-07T05:32:39;12.40;95.40
3069;DHT22;1545;51.728;8.796;2023-05-07T05:35:05;12.40;95.70
3069;DHT22;1545;51.728;8.796;2023-05-07T05:37:31;12.40;96.00
3069;DHT22;1545;51.728;8.796;2023-05-07T05:39:56;12.40;95.70
3069;DHT22;1545;51.728;8.796;2023-05-07T05:42:22;12.40;95.80
3069;DHT22;1545;51.728;8.796;2023-05-07T05:44:48;12.40;96.20
3069;DHT22;1545;51.728;8.796;2023-05-07T05:47:14;12.50;95.90
3069;DHT22;1545;51.728;8.796;2023-05-07T05:49:39;12.60;95.90
3069;DHT22;1545;51.728;8.796;2023-05-07T05:52:05;12.70;94.60
3069;DHT22;1545;51.728;8.796;2023-05-07T05:54:30;12.70;94.40
3069;DHT22;1545;51.728;8.796;2023-05-07T05:56:56;12.70;94.80
3069;DHT22;1545;51.728;8.796;2023-05-07T05:59:22;12.80;94.10
3069;DHT22;1545;51.728;8.796;2023-05-07T06:01:47;12.80;93.80
3069;DHT22;1545;51.728;8.796;2023-05-07T06:04:13;12.90;94.10
3069;DHT22;1545;51.728;8.796;2023-05-07T06:06:38;12.90;93.60
3069;DHT22;1545;51.728;8.796;2023-05-07T06:09:04;12.90;92.70
3069;DHT22;1545;51.728;8.796;2023-05-07T06:11:31;12.90;93.30
3069;DHT22;1545;51.728;8.796;2023-05-07T06:13:56;12.90;93.40
3069;DHT22;1545;51.728;8.796;2023-05-07T06:16:22;12.90;93.40
3069;DHT22;1545;51.728;8.796;2023-05-07T06:18:47;12.90;93.20
3069;DHT22;1545;51.728;8.796;2023-05-07T06:21:13;13.10;93.20
3069;DHT22;1545;51.728;8.796;2023-05-07T06:23:40;13.30;92.90
3069;DHT22;1545;51.728;8.796;2023-05-07T06:26:06;13.40;91.80
3069;DHT22;1545;51.728;8.796;2023-05-07T06:28:32;13.40;91.90
3069;DHT22;1545;51.728;8.796;2023-05-07T06:31:18;13.50;91.90
3069;DHT22;1545;51.728;8.796;2023-05-07T06:33:48;13.70;91.10
3069;DHT22;1545;51.728;8.796;2023-05-07T06:36:13;13.70;90.70
3069;DHT22;1545;51.728;8.796;2023-05-07T06:38:39;13.70;90.20
3069;DHT22;1545;51.728;8.796;2023-05-07T06:41:05;13.70;91.30
3069;DHT22;1545;51.728;8.796;2023-05-07T06:43:31;13.60;90.70
3069;DHT22;1545;51.728;8.796;2023-05-07T06:45:56;13.70;90.30
3069;DHT22;1545;51.728;8.796;2023-05-07T06:48:22;13.60;90.30
3069;DHT22;1545;51.728;8.796;2023-05-07T06:50:47;13.60;90.40
3069;DHT22;1545;51.728;8.796;2023-05-07T06:53:13;13.70;90.60
3069;DHT22;1545;51.728;8.796;2023-05-07T06:55:38;13.70;90.00
3069;DHT22;1545;51.728;8.796;2023-05-07T06:58:04;13.60;91.00
3069;DHT22;1545;51.728;8.796;2023-05-07T07:00:31;13.60;90.50
3069;DHT22;1545;51.728;8.796;2023-05-07T07:02:56;13.60;90.60
3069;DHT22;1545;51.728;8.796;2023-05-07T07:05:22;13.60;90.60
3069;DHT22;1545;51.728;8.796;2023-05-07T07:07:47;13.50;91.00
3069;DHT22;1545;51.728;8.796;2023-05-07T07:10:21;13.60;90.60
3069;DHT22;1545;51.728;8.796;2023-05-07T07:12:47;13.50;90.90
3069;DHT22;1545;51.728;8.796;2023-05-07T07:15:14;13.70;91.60
3069;DHT22;1545;51.728;8.796;2023-05-07T07:17:39;14.10;90.40
3069;DHT22;1545;51.728;8.796;2023-05-07T07:20:05;14.10;89.10
3069;DHT22;1545;51.728;8.796;2023-05-07T07:22:31;14.20;89.10
3069;DHT22;1545;51.728;8.796;2023-05-07T07:24:56;14.30;88.40
3069;DHT22;1545;51.728;8.796;2023-05-07T07:27:22;14.40;88.80
3069;DHT22;1545;51.728;8.796;2023-05-07T07:29:47;14.60;88.10
3069;DHT22;1545;51.728;8.796;2023-05-07T07:32:13;14.80;86.90
3069;DHT22;1545;51.728;8.796;2023-05-07T07:34:39;14.60;87.80
3069;DHT22;1545;51.728;8.796;2023-05-07T07:37:05;14.60;87.20
3069;DHT22;1545;51.728;8.796;2023-05-07T07:39:34;14.80;87.20
3069;DHT22;1545;51.728;8.796;2023-05-07T07:42:00;15.30;85.50
3069;DHT22;1545;51.728;8.796;2023-05-07T07:44:27;15.70;83.90
3069;DHT22;1545;51.728;8.796;2023-05-07T07:46:53;16.10;82.80
3069;DHT22;1545;51.728;8.796;2023-05-07T07:49:19;16.00;83.10
3069;DHT22;1545;51.728;8.796;2023-05-07T07:51:44;15.80;83.00
3069;DHT22;1545;51.728;8.796;2023-05-07T07:54:10;15.50;84.00
3069;DHT22;1545;51.728;8.796;2023-05-07T07:56:36;15.30;85.10
3069;DHT22;1545;51.728;8.796;2023-05-07T07:59:02;15.70;84.20
3069;DHT22;1545;51.728;8.796;2023-05-07T08:01:29;15.80;84.10
3069;DHT22;1545;51.728;8.796;2023-05-07T08:03:55;15.80;83.70
3069;DHT22;1545;51.728;8.796;2023-05-07T08:06:20;15.40;85.30
3069;DHT22;1545;51.728;8.796;2023-05-07T08:08:46;15.80;85.10
3069;DHT22;1545;51.728;8.796;2023-05-07T08:11:11;15.90;83.80
3069;DHT22;1545;51.728;8.796;2023-05-07T08:13:38;15.70;84.20
3069;DHT22;1545;51.728;8.796;2023-05-07T08:16:04;15.70;84.70
3069;DHT22;1545;51.728;8.796;2023-05-07T08:18:29;15.60;83.00
3069;DHT22;1545;51.728;8.796;2023-05-07T08:20:55;15.60;84.40
3069;DHT22;1545;51.728;8.796;2023-05-07T08:23:21;15.70;84.70
3069;DHT22;1545;51.728;8.796;2023-05-07T08:25:48;15.90;83.20
3069;DHT22;1545;51.728;8.796;2023-05-07T08:28:14;15.60;82.80
3069;DHT22;1545;51.728;8.796;2023-05-07T08:30:40;15.40;84.00
3069;DHT22;1545;51.728;8.796;2023-05-07T08:33:06;15.40;85.00
3069;DHT22;1545;51.728;8.796;2023-05-07T08:35:31;15.50;84.50
3069;DHT22;1545;51.728;8.796;2023-05-07T08:37:57;15.80;83.80
3069;DHT22;1545;51.728;8.796;2023-05-07T08:40:25;16.30;82.70
3069;DHT22;1545;51.728;8.796;2023-05-07T08:42:52;15.90;82.30
3069;DHT22;1545;51.728;8.796;2023-05-07T08:45:19;16.00;83.50
3069;DHT22;1545;51.728;8.796;2023-05-07T08:47:49;16.30;82.10
3069;DHT22;1545;51.728;8.796;2023-05-07T08:50:17;16.60;82.70
3069;DHT22;1545;51.728;8.796;2023-05-07T08:52:43;16.80;80.20
3069;DHT22;1545;51.728;8.796;2023-05-07T08:55:09;16.40;81.60
3069;DHT22;1545;51.728;8.796;2023-05-07T08:57:34;16.30;83.10
3069;DHT22;1545;51.728;8.796;2023-05-07T09:00:01;16.70;81.40
3069;DHT22;1545;51.728;8.796;2023-05-07T09:02:26;17.00;81.10
3069;DHT22;1545;51.728;8.796;2023-05-07T09:04:52;16.80;82.10
3069;DHT22;1545;51.728;8.796;2023-05-07T09:07:19;17.30;79.80
3069;DHT22;1545;51.728;8.796;2023-05-07T09:09:45;17.40;79.80
3069;DHT22;1545;51.728;8.796;2023-05-07T09:12:11;17.30;79.10
3069;DHT22;1545;51.728;8.796;2023-05-07T09:14:37;17.30;79.60
3069;DHT22;1545;51.728;8.796;2023-05-07T09:17:02;17.70;79.20
3069;DHT22;1545;51.728;8.796;2023-05-07T09:19:28;17.50;79.60
3069;DHT22;1545;51.728;8.796;2023-05-07T09:22:04;18.00;78.50
3069;DHT22;1545;51.728;8.796;2023-05-07T09:24:31;18.10;76.70
3069;DHT22;1545;51.728;8.796;2023-05-07T09:27:00;17.90;77.10
3069;DHT22;1545;51.728;8.796;2023-05-07T09:29:27;17.20;79.60
3069;DHT22;1545;51.728;8.796;2023-05-07T09:31:54;17.30;79.70
3069;DHT22;1545;51.728;8.796;2023-05-07T09:34:20;17.40;80.00
3069;DHT22;1545;51.728;8.796;2023-05-07T09:36:46;17.60;79.50
3069;DHT22;1545;51.728;8.796;2023-05-07T09:39:12;18.20;79.10
3069;DHT22;1545;51.728;8.796;2023-05-07T09:41:48;18.60;79.10
3069;DHT22;1545;51.728;8.796;2023-05-07T09:44:15;19.00;77.40
3069;DHT22;1545;51.728;8.796;2023-05-07T09:46:42;19.00;77.10
3069;DHT22;1545;51.728;8.796;2023-05-07T09:49:13;18.20;78.60
3069;DHT22;1545;51.728;8.796;2023-05-07T09:51:48;17.70;79.70
3069;DHT22;1545;51.728;8.796;2023-05-07T09:54:15;17.80;79.30
3069;DHT22;1545;51.728;8.796;2023-05-07T09:56:40;17.90;80.40
3069;DHT22;1545;51.728;8.796;2023-05-07T09:59:07;18.70;78.90
3069;DHT22;1545;51.728;8.796;2023-05-07T10:01:36;18.50;78.60
3069;DHT22;1545;51.728;8.796;2023-05-07T10:04:02;18.50;78.50
3069;DHT22;1545;51.728;8.796;2023-05-07T10:06:32;18.50;79.80
3069;DHT22;1545;51.728;8.796;2023-05-07T10:08:57;18.60;78.50
3069;DHT22;1545;51.728;8.796;2023-05-07T10:11:24;18.50;78.80
3069;DHT22;1545;51.728;8.796;2023-05-07T10:13:50;18.40;78.80
3069;DHT22;1545;51.728;8.796;2023-05-07T10:16:17;18.20;80.60
3069;DHT22;1545;51.728;8.796;2023-05-07T10:18:43;18.40;79.40
3069;DHT22;1545;51.728;8.796;2023-05-07T10:21:20;18.50;79.50
3069;DHT22;1545;51.728;8.796;2023-05-07T10:23:50;18.70;79.20
3069;DHT22;1545;51.728;8.796;2023-05-07T10:26:18;18.60;79.10
3069;DHT22;1545;51.728;8.796;2023-05-07T10:28:49;18.60;79.30
3069;DHT22;1545;51.728;8.796;2023-05-07T10:34:15;17.60;80.30
3069;DHT22;1545;51.728;8.796;2023-05-07T10:36:42;17.30;80.80
3069;DHT22;1545;51.728;8.796;2023-05-07T10:39:08;17.40;80.70
3069;DHT22;1545;51.728;8.796;2023-05-07T10:41:33;17.80;80.90
3069;DHT22;1545;51.728;8.796;2023-05-07T10:43:59;17.80;80.60
3069;DHT22;1545;51.728;8.796;2023-05-07T10:46:27;18.30;80.30
3069;DHT22;1545;51.728;8.796;2023-05-07T10:51:29;18.60;79.00
3069;DHT22;1545;51.728;8.796;2023-05-07T10:54:19;18.20;79.60
3069;DHT22;1545;51.728;8.796;2023-05-07T10:56:44;18.10;80.50
3069;DHT22;1545;51.728;8.796;2023-05-07T11:01:55;18.50;80.20
3069;DHT22;1545;51.728;8.796;2023-05-07T11:04:23;18.50;79.60
3069;DHT22;1545;51.728;8.796;2023-05-07T11:15:12;18.40;79.80
3069;DHT22;1545;51.728;8.796;2023-05-07T11:17:57;18.20;80.80
3069;DHT22;1545;51.728;8.796;2023-05-07T11:20:52;18.30;81.60
3069;DHT22;1545;51.728;8.796;2023-05-07T11:26:06;18.80;79.90
3069;DHT22;1545;51.728;8.796;2023-05-07T11:28:39;18.80;80.20
3069;DHT22;1545;51.728;8.796;2023-05-07T11:31:05;18.70;80.20
3069;DHT22;1545;51.728;8.796;2023-05-07T11:33:31;18.50;80.40
3069;DHT22;1545;51.728;8.796;2023-05-07T11:35:57;18.80;80.00
3069;DHT22;1545;51.728;8.796;2023-05-07T11:38:24;18.80;80.40
3069;DHT22;1545;51.728;8.796;2023-05-07T11:40:57;19.00;79.70
3069;DHT22;1545;51.728;8.796;2023-05-07T11:43:24;19.10;80.30
3069;DHT22;1545;51.728;8.796;2023-05-07T11:45:50;18.90;79.90
3069;DHT22;1545;51.728;8.796;2023-05-07T11:48:16;18.60;80.50
3069;DHT22;1545;51.728;8.796;2023-05-07T11:50:53;18.70;80.60
3069;DHT22;1545;51.728;8.796;2023-05-07T11:53:20;18.50;81.00
3069;DHT22;1545;51.728;8.796;2023-05-07T11:55:55;18.80;79.80
3069;DHT22;1545;51.728;8.796;2023-05-07T11:58:24;18.70;79.50
3069;DHT22;1545;51.728;8.796;2023-05-07T12:00:54;18.30;80.20
3069;DHT22;1545;51.728;8.796;2023-05-07T12:03:20;18.40;80.30
3069;DHT22;1545;51.728;8.796;2023-05-07T12:05:46;18.60;80.70
3069;DHT22;1545;51.728;8.796;2023-05-07T12:08:15;18.80;80.90
3069;DHT22;1545;51.728;8.796;2023-05-07T12:10:42;19.00;80.30
3069;DHT22;1545;51.728;8.796;2023-05-07T12:13:17;19.20;81.20
3069;DHT22;1545;51.728;8.796;2023-05-07T12:15:43;19.20;78.30
3069;DHT22;1545;51.728;8.796;2023-05-07T12:18:10;18.90;79.80
3069;DHT22;1545;51.728;8.796;2023-05-07T12:20:36;19.00;79.20
3069;DHT22;1545;51.728;8.796;2023-05-07T12:23:02;18.80;80.10
3069;DHT22;1545;51.728;8.796;2023-05-07T12:25:35;18.60;81.50
3069;DHT22;1545;51.728;8.796;2023-05-07T12:28:05;18.80;80.30
3069;DHT22;1545;51.728;8.796;2023-05-07T12:30:40;18.90;80.30
3069;DHT22;1545;51.728;8.796;2023-05-07T12:33:07;19.10;80.60
3069;DHT22;1545;51.728;8.796;2023-05-07T12:35:37;19.30;79.70
3069;DHT22;1545;51.728;8.796;2023-05-07T12:38:08;19.10;80.40
3069;DHT22;1545;51.728;8.796;2023-05-07T12:40:38;19.00;80.00
3069;DHT22;1545;51.728;8.796;2023-05-07T12:43:04;19.00;80.30
3069;DHT22;1545;51.728;8.796;2023-05-07T12:45:29;19.20;80.80
3069;DHT22;1545;51.728;8.796;2023-05-07T12:47:55;19.30;80.10
3069;DHT22;1545;51.728;8.796;2023-05-07T12:50:21;19.50;79.20
3069;DHT22;1545;51.728;8.796;2023-05-07T12:52:50;19.30;80.70
3069;DHT22;1545;51.728;8.796;2023-05-07T12:55:16;19.30;79.40
3069;DHT22;1545;51.728;8.796;2023-05-07T12:57:43;19.40;79.90
3069;DHT22;1545;51.728;8.796;2023-05-07T13:00:11;19.30;80.40
3069;DHT22;1545;51.728;8.796;2023-05-07T13:02:38;19.40;78.70
3069;DHT22;1545;51.728;8.796;2023-05-07T13:05:04;19.00;78.60
3069;DHT22;1545;51.728;8.796;2023-05-07T13:07:30;18.80;81.20
3069;DHT22;1545;51.728;8.796;2023-05-07T13:09:55;18.90;80.10
3069;DHT22;1545;51.728;8.796;2023-05-07T13:12:21;18.60;81.00
3069;DHT22;1545;51.728;8.796;2023-05-07T13:14:46;18.70;81.10
3069;DHT22;1545;51.728;8.796;2023-05-07T13:17:12;18.70;80.70
3069;DHT22;1545;51.728;8.796;2023-05-07T13:19:37;18.50;80.70
3069;DHT22;1545;51.728;8.796;2023-05-07T13:22:03;18.30;81.20
3069;DHT22;1545;51.728;8.796;2023-05-07T13:24:29;18.60;81.50
3069;DHT22;1545;51.728;8.796;2023-05-07T13:26:54;18.40;80.30
3069;DHT22;1545;51.728;8.796;2023-05-07T13:29:20;18.50;80.90
3069;DHT22;1545;51.728;8.796;2023-05-07T13:31:50;18.60;81.10
3069;DHT22;1545;51.728;8.796;2023-05-07T13:34:16;18.40;81.00
3069;DHT22;1545;51.728;8.796;2023-05-07T13:36:41;18.40;81.20
3069;DHT22;1545;51.728;8.796;2023-05-07T13:39:07;18.40;81.10
3069;DHT22;1545;51.728;8.796;2023-05-07T13:41:32;18.30;80.70
3069;DHT22;1545;51.728;8.796;2023-05-07T13:43:58;18.30;80.90
3069;DHT22;1545;51.728;8.796;2023-05-07T13:46:23;18.30;80.50
3069;DHT22;1545;51.728;8.796;2023-05-07T13:48:49;18.30;81.40
3069;DHT22;1545;51.728;8.796;2023-05-07T13:51:15;18.50;81.40
3069;DHT22;1545;51.728;8.796;2023-05-07T13:53:42;18.60;79.90
3069;DHT22;1545;51.728;8.796;2023-05-07T13:56:07;18.60;80.70
3069;DHT22;1545;51.728;8.796;2023-05-07T13:58:33;18.40;81.10
3069;DHT22;1545;51.728;8.796;2023-05-07T14:00:58;18.60;81.10
3069;DHT22;1545;51.728;8.796;2023-05-07T14:03:24;18.90;81.70
3069;DHT22;1545;51.728;8.796;2023-05-07T14:05:49;18.70;78.70
3069;DHT22;1545;51.728;8.796;2023-05-07T14:08:15;18.50;79.40
3069;DHT22;1545;51.728;8.796;2023-05-07T14:10:40;18.20;80.80
3069;DHT22;1545;51.728;8.796;2023-05-07T14:13:06;18.40;81.00
3069;DHT22;1545;51.728;8.796;2023-05-07T14:15:31;18.30;79.50
3069;DHT22;1545;51.728;8.796;2023-05-07T14:18:00;18.30;80.10
3069;DHT22;1545;51.728;8.796;2023-05-07T14:20:25;18.40;80.50
3069;DHT22;1545;51.728;8.796;2023-05-07T14:22:51;18.70;81.30
3069;DHT22;1545;51.728;8.796;2023-05-07T14:25:17;18.60;80.50
3069;DHT22;1545;51.728;8.796;2023-05-07T14:27:42;18.60;81.00
3069;DHT22;1545;51.728;8.796;2023-05-07T14:30:08;18.60;79.90
3069;DHT22;1545;51.728;8.796;2023-05-07T14:32:35;18.90;80.40
3069;DHT22;1545;51.728;8.796;2023-05-07T14:35:01;19.20;81.00
3069;DHT22;1545;51.728;8.796;2023-05-07T14:37:26;19.00;79.10
3069;DHT22;1545;51.728;8.796;2023-05-07T14:39:52;19.10;79.20
3069;DHT22;1545;51.728;8.796;2023-05-07T14:42:17;18.80;78.80
3069;DHT22;1545;51.728;8.796;2023-05-07T14:44:43;18.90;80.60
3069;DHT22;1545;51.728;8.796;2023-05-07T14:47:10;18.90;78.90
3069;DHT22;1545;51.728;8.796;2023-05-07T14:49:36;18.80;79.20
3069;DHT22;1545;51.728;8.796;2023-05-07T14:52:01;18.80;79.10
3069;DHT22;1545;51.728;8.796;2023-05-07T14:54:27;18.60;79.30
3069;DHT22;1545;51.728;8.796;2023-05-07T14:56:53;18.50;80.60
3069;DHT22;1545;51.728;8.796;2023-05-07T14:59:19;18.60;80.60
3069;DHT22;1545;51.728;8.796;2023-05-07T15:01:47;18.60;79.90
3069;DHT22;1545;51.728;8.796;2023-05-07T15:04:12;18.50;79.60
3069;DHT22;1545;51.728;8.796;2023-05-07T15:06:38;18.30;80.40
3069;DHT22;1545;51.728;8.796;2023-05-07T15:09:04;18.30;80.10
3069;DHT22;1545;51.728;8.796;2023-05-07T15:11:29;18.20;80.50
3069;DHT22;1545;51.728;8.796;2023-05-07T15:13:55;18.30;80.20
3069;DHT22;1545;51.728;8.796;2023-05-07T15:16:21;18.40;81.30
3069;DHT22;1545;51.728;8.796;2023-05-07T15:18:47;18.10;80.40
3069;DHT22;1545;51.728;8.796;2023-05-07T15:21:12;18.30;79.70
3069;DHT22;1545;51.728;8.796;2023-05-07T15:23:38;18.30;80.00
3069;DHT22;1545;51.728;8.796;2023-05-07T15:26:04;18.20;79.80
3069;DHT22;1545;51.728;8.796;2023-05-07T15:28:30;17.80;80.50
3069;DHT22;1545;51.728;8.796;2023-05-07T15:30:56;17.60;81.30
3069;DHT22;1545;51.728;8.796;2023-05-07T15:33:21;17.80;80.90
3069;DHT22;1545;51.728;8.796;2023-05-07T15:35:47;17.80;81.50
3069;DHT22;1545;51.728;8.796;2023-05-07T15:38:12;17.90;80.00
3069;DHT22;1545;51.728;8.796;2023-05-07T15:40:38;17.80;80.20
3069;DHT22;1545;51.728;8.796;2023-05-07T15:43:07;17.80;81.30
3069;DHT22;1545;51.728;8.796;2023-05-07T15:45:38;18.10;80.50
3069;DHT22;1545;51.728;8.796;2023-05-07T15:48:05;18.00;80.40
3069;DHT22;1545;51.728;8.796;2023-05-07T15:50:30;18.20;81.40
3069;DHT22;1545;51.728;8.796;2023-05-07T15:52:56;17.90;80.30
3069;DHT22;1545;51.728;8.796;2023-05-07T15:55:22;18.00;80.70
3069;DHT22;1545;51.728;8.796;2023-05-07T15:57:48;17.70;80.20
3069;DHT22;1545;51.728;8.796;2023-05-07T16:00:14;17.50;81.30
3069;DHT22;1545;51.728;8.796;2023-05-07T16:02:41;17.90;80.60
3069;DHT22;1545;51.728;8.796;2023-05-07T16:05:07;18.00;80.70
3069;DHT22;1545;51.728;8.796;2023-05-07T16:07:37;17.90;79.60
3069;DHT22;1545;51.728;8.796;2023-05-07T16:10:03;17.60;81.00
3069;DHT22;1545;51.728;8.796;2023-05-07T16:12:28;17.40;81.50
3069;DHT22;1545;51.728;8.796;2023-05-07T16:14:54;17.40;81.10
3069;DHT22;1545;51.728;8.796;2023-05-07T16:17:20;17.20;81.10